Time;durP1;ratioP1;P1;durP2;ratioP2;P2;SDS_P1;SDS_P2;PMS_P1;PMS_P2;Temp;Humidity;BMP_temperature;BMP_pressure;BME280_temperature;BME280_humidity;BME280_pressure;Samples;Min_cycle;Max_cycle;Signal;HPM_P1;HPM_P2
2021/10/16 11:25:00;;;;;;;5.80;3.40;;;13.10;99.90;;;;;;11976040;27;20414;-60
2021/10/16 11:30:49;;;;;;;3.60;2.70;;;13.50;99.90;;;;;;11964942;28;20037;-60
2021/10/16 11:36:37;;;;;;;5.22;3.30;;;14.40;99.90;;;;;;11965911;28;20052;-60
2021/10/16 11:42:25;;;;;;;3.30;2.58;;;14.80;99.90;;;;;;11963518;28;20468;-61
2021/10/16 11:48:21;;;;;;;3.78;2.67;;;15.30;99.90;;;;;;11967648;28;20045;-61
2021/10/16 11:54:17;;;;;;;3.33;2.35;;;15.60;99.90;;;;;;11967040;28;20052;-60
2021/10/16 12:00:19;;;;;;;4.90;2.70;;;15.90;99.90;;;;;;11969158;28;20060;-60
2021/10/16 12:06:08;;;;;;;7.97;1.95;;;16.20;99.90;;;;;;11967223;28;20045;-61
2021/10/16 12:12:00;;;;;;;4.63;2.20;;;16.40;99.90;;;;;;11964598;28;20416;-61
2021/10/16 12:17:52;;;;;;;5.65;2.20;;;16.40;99.90;;;;;;11963862;28;20927;-61
2021/10/16 12:23:46;;;;;;;3.15;1.60;;;16.50;99.90;;;;;;12000580;28;20053;-61
2021/10/16 12:29:34;;;;;;;4.15;2.63;;;16.50;99.90;;;;;;11976909;28;20440;-61
2021/10/16 12:35:25;;;;;;;3.92;2.03;;;16.70;99.90;;;;;;11989010;28;20660;-61
2021/10/16 12:41:24;;;;;;;5.45;2.00;;;16.80;99.90;;;;;;11981022;28;20071;-61
2021/10/16 12:47:13;;;;;;;4.82;2.35;;;16.80;99.90;;;;;;11980444;28;20402;-61
2021/10/16 12:53:01;;;;;;;4.68;2.35;;;17.00;99.90;;;;;;11979615;28;20132;-61
2021/10/16 12:58:51;;;;;;;4.00;1.80;;;17.30;99.90;;;;;;11976393;28;20780;-61
2021/10/16 13:04:55;;;;;;;4.63;1.60;;;17.50;99.90;;;;;;11980183;28;20044;-60
2021/10/16 13:10:43;;;;;;;6.57;2.00;;;17.70;99.90;;;;;;11980527;28;20045;-61
2021/10/16 13:16:30;;;;;;;4.35;2.00;;;17.90;99.90;;;;;;11977008;28;20543;-60
2021/10/16 13:22:17;;;;;;;3.17;1.92;;;18.10;99.90;;;;;;11983060;28;20037;-60
2021/10/16 13:28:14;;;;;;;3.25;2.00;;;18.20;99.90;;;;;;11978655;28;22346;-61
2021/10/16 13:34:01;;;;;;;7.63;2.20;;;18.40;99.90;;;;;;11977979;28;20052;-61
2021/10/16 13:39:48;;;;;;;4.15;1.95;;;18.50;99.90;;;;;;11977352;28;20155;-59
2021/10/16 13:45:36;;;;;;;5.03;2.08;;;18.60;99.90;;;;;;11980661;28;20049;-61
2021/10/16 13:51:23;;;;;;;3.92;2.25;;;18.70;99.70;;;;;;11980600;28;20087;-60
2021/10/16 13:57:10;;;;;;;3.65;2.03;;;18.70;99.40;;;;;;11977723;28;20068;-61
2021/10/16 14:02:59;;;;;;;2.38;1.98;;;18.90;98.30;;;;;;11975111;28;20045;-62
2021/10/16 14:08:46;;;;;;;3.17;2.00;;;18.90;97.20;;;;;;11975955;28;20434;-62
2021/10/16 14:14:33;;;;;;;3.33;1.90;;;19.00;96.60;;;;;;11974935;28;20049;-60
2021/10/16 14:20:21;;;;;;;4.00;1.70;;;19.10;96.80;;;;;;11974734;28;20053;-62
2021/10/16 14:26:09;;;;;;;6.75;2.60;;;19.10;95.70;;;;;;11977771;28;20045;-63
2021/10/16 14:31:56;;;;;;;6.22;2.35;;;19.20;95.20;;;;;;11974057;28;20885;-62
2021/10/16 14:37:44;;;;;;;5.63;2.55;;;19.20;93.10;;;;;;11977631;28;20041;-62
2021/10/16 14:43:31;;;;;;;4.20;2.55;;;19.30;93.30;;;;;;11976054;28;20037;-63
2021/10/16 14:49:18;;;;;;;4.35;2.40;;;19.30;93.60;;;;;;11980051;28;20052;-62
2021/10/16 14:55:08;;;;;;;9.75;3.08;;;19.20;92.50;;;;;;11973155;28;20053;-62
2021/10/16 15:00:56;;;;;;;3.38;2.20;;;19.20;91.10;;;;;;11974409;28;20148;-61
2021/10/16 15:06:43;;;;;;;4.05;2.33;;;19.20;92.10;;;;;;11977373;28;20103;-61
2021/10/16 15:12:31;;;;;;;4.32;2.63;;;19.20;94.30;;;;;;11976289;28;20083;-61
2021/10/16 15:18:18;;;;;;;9.10;2.50;;;19.10;92.70;;;;;;11972836;28;20053;-61
2021/10/16 15:24:06;;;;;;;5.57;2.28;;;18.90;98.50;;;;;;11975598;28;20057;-62
2021/10/16 15:35:56;;;;;;;4.50;2.37;;;18.60;99.90;;;;;;11975971;28;20045;-62
2021/10/16 15:41:42;;;;;;;4.85;2.50;;;18.20;99.90;;;;;;11975184;28;20300;-62
2021/10/16 15:47:31;;;;;;;8.15;2.67;;;17.80;99.90;;;;;;11977455;28;20067;-61
2021/10/16 15:53:17;;;;;;;6.82;2.60;;;17.30;99.90;;;;;;11977535;28;20437;-61
2021/10/16 15:59:04;;;;;;;7.55;2.40;;;16.60;99.90;;;;;;11966185;28;20517;-60
2021/10/16 16:04:55;;;;;;;5.15;2.60;;;16.40;99.90;;;;;;11978074;28;20500;-60
2021/10/16 16:10:42;;;;;;;6.97;2.63;;;16.50;99.90;;;;;;11985098;28;20052;-61
2021/10/16 16:16:29;;;;;;;6.72;2.55;;;16.50;99.90;;;;;;11985382;28;20050;-62
2021/10/16 16:28:18;;;;;;;4.70;2.67;;;15.80;99.90;;;;;;11979640;28;20051;-61
2021/10/16 16:34:05;;;;;;;7.80;2.50;;;15.80;99.90;;;;;;11982316;28;20049;-60
2021/10/16 16:39:54;;;;;;;5.05;2.50;;;15.70;99.90;;;;;;11985699;28;20045;-61
2021/10/16 16:45:48;;;;;;;4.55;2.35;;;15.30;99.90;;;;;;11981681;28;20037;-61
2021/10/16 16:51:35;;;;;;;4.20;2.60;;;15.30;99.90;;;;;;11983425;28;20071;-60
2021/10/16 16:57:24;;;;;;;5.68;2.92;;;15.30;99.90;;;;;;11982025;28;20053;-61
2021/10/16 17:03:10;;;;;;;6.50;3.05;;;15.20;99.90;;;;;;11991155;28;20048;-61
2021/10/16 17:08:57;;;;;;;9.63;4.85;;;15.10;99.90;;;;;;11978107;28;20053;-62
2021/10/16 17:14:46;;;;;;;10.10;4.20;;;15.00;99.90;;;;;;11983869;28;20056;-60
2021/10/16 17:20:32;;;;;;;8.80;4.10;;;14.50;99.90;;;;;;11970062;28;20053;-61
2021/10/16 17:26:20;;;;;;;7.35;3.80;;;14.30;99.90;;;;;;11980711;28;20044;-61
2021/10/16 17:32:09;;;;;;;11.70;4.45;;;14.20;99.90;;;;;;11975623;28;20520;-62
